Time;durP1;ratioP1;P1;durP2;ratioP2;P2;SDS_P1;SDS_P2;PMS_P1;PMS_P2;Temp;Humidity;BMP_temperature;BMP_pressure;BME280_temperature;BME280_humidity;BME280_pressure;Samples;Min_cycle;Max_cycle;Signal;HPM_P1;HPM_P2
2022/02/13 00:01:03;;;;;;;14.77;5.57;;;;;;;7.20;96.36;101706.22;5040591;28;20032;-54
2022/02/13 00:03:28;;;;;;;18.85;6.88;;;;;;;7.06;97.61;101712.91;5039899;28;20029;-55
2022/02/13 00:05:55;;;;;;;;;;;;;;;7.37;93.65;101720.50;5048539;28;20032;-54
2022/02/13 00:08:20;;;;;;;19.07;5.63;;;;;;;7.11;96.50;101710.63;5035171;28;19935;-53
2022/02/13 00:10:46;;;;;;;15.63;6.17;;;;;;;7.20;99.99;101722.19;5045511;28;20033;-52
2022/02/13 00:13:11;;;;;;;17.83;6.23;;;;;;;6.85;100.00;101720.19;5041726;28;20037;-51
2022/02/13 00:15:37;;;;;;;18.92;6.53;;;;;;;6.77;100.00;101720.06;5038393;28;20036;-54
2022/02/13 00:18:03;;;;;;;19.88;6.47;;;;;;;6.86;100.00;101705.06;5048154;28;20064;-52
2022/02/13 00:20:29;;;;;;;17.10;6.22;;;;;;;6.69;100.00;101712.88;5035927;28;20039;-51
2022/02/13 00:22:55;;;;;;;15.70;6.28;;;;;;;6.95;100.00;101700.66;5044097;28;20033;-50
2022/02/13 00:25:21;;;;;;;17.70;6.50;;;;;;;7.22;100.00;101696.28;5042834;28;20044;-51
2022/02/13 00:27:46;;;;;;;14.17;5.67;;;;;;;7.38;98.94;101687.59;5037182;28;20038;-48
2022/02/13 00:30:13;;;;;;;16.70;6.22;;;;;;;6.83;100.00;101692.91;5048326;28;20037;-53
2022/02/13 00:32:43;;;;;;;14.00;5.60;;;;;;;6.86;100.00;101686.44;5036770;28;20054;-51
2022/02/13 00:35:10;;;;;;;15.27;5.85;;;;;;;6.86;100.00;101689.09;5042363;28;20061;-53
2022/02/13 00:37:36;;;;;;;13.35;5.68;;;;;;;6.69;100.00;101691.59;5044890;28;20040;-55
2022/02/13 00:40:03;;;;;;;21.70;7.78;;;;;;;6.74;100.00;101685.81;5035039;28;20041;-53
2022/02/13 00:42:28;;;;;;;16.10;7.28;;;;;;;6.86;100.00;101695.28;5047715;28;20112;-51
2022/02/13 00:44:53;;;;;;;18.40;6.37;;;;;;;6.87;100.00;101685.44;5039042;28;20861;-51
2022/02/13 00:47:19;;;;;;;17.13;7.23;;;;;;;6.94;100.00;101688.34;5040791;28;20033;-55
2022/02/13 00:49:44;;;;;;;14.17;6.07;;;;;;;7.21;100.00;101683.97;5044317;28;20047;-50
2022/02/13 00:52:10;;;;;;;13.20;5.93;;;;;;;7.20;100.00;101677.81;5042229;28;20450;-51
2022/02/13 00:54:35;;;;;;;13.73;5.10;;;;;;;7.05;100.00;101671.34;5035409;28;20029;-53
2022/02/13 00:57:01;;;;;;;14.90;5.93;;;;;;;6.83;100.00;101670.78;5051294;28;20037;-54
2022/02/13 00:59:28;;;;;;;22.33;7.38;;;;;;;6.78;100.00;101673.06;5039590;28;20033;-53
2022/02/13 01:01:53;;;;;;;;;;;;;;;6.82;100.00;101662.00;5047027;28;20079;-48
2022/02/13 01:04:19;;;;;;;15.87;7.20;;;;;;;6.86;100.00;101665.16;5034706;28;19917;-50
2022/02/13 01:06:45;;;;;;;14.50;6.32;;;;;;;6.98;100.00;101650.69;5045740;28;20049;-53
2022/02/13 01:09:10;;;;;;;14.23;6.67;;;;;;;6.78;100.00;101646.47;5040147;28;20044;-51
2022/02/13 01:11:36;;;;;;;20.97;7.10;;;;;;;6.90;100.00;101645.25;5037882;28;20087;-50
2022/02/13 01:14:01;;;;;;;24.50;7.57;;;;;;;7.00;100.00;101634.56;5047662;28;20068;-52
2022/02/13 01:16:27;;;;;;;19.15;7.75;;;;;;;7.19;100.00;101641.56;5051043;28;20053;-52
2022/02/13 01:18:53;;;;;;;15.43;7.60;;;;;;;6.94;100.00;101641.34;5044405;28;20044;-49
2022/02/13 01:21:19;;;;;;;16.37;6.30;;;;;;;7.01;100.00;101631.75;5043064;28;20033;-49
2022/02/13 01:23:44;;;;;;;8.15;4.70;;;;;;;6.64;100.00;101629.22;5022720;28;20305;-47
2022/02/13 01:26:11;;;;;;;21.70;6.17;;;;;;;6.65;100.00;101615.78;5051126;28;20044;-55
2022/02/13 01:28:37;;;;;;;15.10;6.03;;;;;;;6.22;100.00;101610.16;5039478;28;20039;-56
2022/02/13 01:31:02;;;;;;;17.05;5.60;;;;;;;6.25;100.00;101615.16;5046235;28;20037;-51
2022/02/13 01:33:29;;;;;;;15.20;5.77;;;;;;;6.28;100.00;101609.56;5046017;28;20099;-47
2022/02/13 01:35:54;;;;;;;;;;;;;;;6.12;100.00;101609.38;5039385;28;20501;-52
2022/02/13 01:38:20;;;;;;;13.27;6.60;;;;;;;6.09;100.00;101607.00;5050191;28;19919;-52
2022/02/13 01:40:45;;;;;;;12.13;6.13;;;;;;;6.13;100.00;101614.53;5037059;28;20124;-52
2022/02/13 01:43:11;;;;;;;14.10;6.27;;;;;;;6.21;100.00;101610.28;5045025;28;20029;-54
2022/02/13 01:45:36;;;;;;;23.17;6.93;;;;;;;6.34;100.00;101605.47;5046982;28;20068;-50
2022/02/13 01:48:02;;;;;;;13.87;6.50;;;;;;;6.24;100.00;101602.06;5037848;28;20102;-52
2022/02/13 01:50:27;;;;;;;14.00;6.28;;;;;;;6.49;100.00;101592.53;5050651;28;20294;-50
2022/02/13 01:52:53;;;;;;;12.40;6.30;;;;;;;5.93;100.00;101581.88;5047047;28;20033;-48
2022/02/13 01:55:20;;;;;;;12.85;6.57;;;;;;;6.05;100.00;101571.94;5053288;28;20094;-50
2022/02/13 01:57:45;;;;;;;;;;;;;;;5.86;100.00;101567.50;5040601;28;20116;-53
2022/02/13 02:00:11;;;;;;;16.27;6.90;;;;;;;6.12;100.00;101566.88;5044797;28;19995;-51
2022/02/13 02:02:40;;;;;;;14.40;7.20;;;;;;;6.11;100.00;101573.16;5041731;28;20506;-48
2022/02/13 02:05:06;;;;;;;22.13;7.20;;;;;;;6.10;100.00;101563.50;5046984;28;20060;-52
2022/02/13 02:07:32;;;;;;;18.50;7.55;;;;;;;6.22;100.00;101566.81;5044027;28;20037;-50
2022/02/13 02:09:57;;;;;;;18.83;7.53;;;;;;;6.11;100.00;101547.44;5046767;28;20108;-48
2022/02/13 02:12:25;;;;;;;12.82;5.68;;;;;;;6.29;100.00;101554.63;5049613;28;20402;-52
2022/02/13 02:14:50;;;;;;;21.55;7.40;;;;;;;6.08;100.00;101561.03;5043862;28;20069;-53
2022/02/13 02:17:17;;;;;;;17.10;7.05;;;;;;;6.12;100.00;101551.78;5043316;28;20060;-52
2022/02/13 02:19:43;;;;;;;19.52;6.32;;;;;;;6.21;100.00;101560.66;5022231;28;20037;-52
2022/02/13 02:22:09;;;;;;;13.17;6.20;;;;;;;6.21;100.00;101551.84;5050482;28;20047;-51
2022/02/13 02:24:35;;;;;;;15.85;6.47;;;;;;;6.40;100.00;101549.06;5049567;28;20018;-51
2022/02/13 02:27:01;;;;;;;16.63;7.22;;;;;;;6.09;100.00;101537.94;5041152;28;20041;-50
2022/02/13 02:29:27;;;;;;;14.85;6.70;;;;;;;6.09;100.00;101536.13;5042360;28;20045;-49
2022/02/13 02:31:53;;;;;;;17.77;7.32;;;;;;;6.17;100.00;101522.13;5047436;28;20041;-50
2022/02/13 02:34:18;;;;;;;14.32;5.57;;;;;;;6.23;100.00;101526.81;5036079;28;20053;-51
2022/02/13 02:36:43;;;;;;;20.30;6.20;;;;;;;6.00;100.00;101526.38;5048411;28;20161;-48
2022/02/13 02:39:09;;;;;;;18.40;5.93;;;;;;;5.99;100.00;101514.06;5042148;28;20037;-52
2022/02/13 02:41:34;;;;;;;14.50;5.63;;;;;;;6.02;100.00;101512.00;5053122;28;20119;-54
2022/02/13 02:44:00;;;;;;;13.80;5.77;;;;;;;5.98;100.00;101507.09;5037482;28;20107;-51
2022/02/13 02:46:26;;;;;;;13.30;5.32;;;;;;;6.10;100.00;101497.97;5049719;28;20532;-53
2022/02/13 02:48:51;;;;;;;14.35;6.15;;;;;;;5.89;100.00;101487.59;5039270;28;20215;-51
2022/02/13 02:51:17;;;;;;;15.07;5.57;;;;;;;5.81;100.00;101475.06;5043165;28;20052;-53
2022/02/13 02:53:43;;;;;;;14.75;5.15;;;;;;;6.08;100.00;101470.72;5046151;28;20096;-56
2022/02/13 02:56:10;;;;;;;11.68;5.63;;;;;;;5.80;100.00;101477.84;5052475;28;20090;-49
2022/02/13 02:58:35;;;;;;;11.13;6.10;;;;;;;5.93;100.00;101475.69;5036854;28;20498;-53
2022/02/13 03:01:02;;;;;;;19.55;6.50;;;;;;;6.00;100.00;101468.78;5052877;28;20047;-55
2022/02/13 03:03:27;;;;;;;14.32;6.05;;;;;;;6.12;100.00;101473.94;5052487;28;20052;-50
2022/02/13 03:05:52;;;;;;;13.40;5.70;;;;;;;6.03;100.00;101463.22;5052511;28;20040;-52
2022/02/13 03:08:19;;;;;;;11.97;5.50;;;;;;;5.99;100.00;101453.84;5035961;28;20044;-49
2022/02/13 03:10:45;;;;;;;15.80;5.53;;;;;;;6.00;100.00;101460.00;5047689;28;20083;-53
2022/02/13 03:13:14;;;;;;;15.55;5.88;;;;;;;6.04;100.00;101453.44;5041303;28;20041;-54
2022/02/13 03:15:40;;;;;;;13.85;5.85;;;;;;;6.02;100.00;101455.41;5039834;28;20052;-52
2022/02/13 03:18:05;;;;;;;9.27;4.18;;;;;;;6.18;100.00;101460.03;5048702;28;20053;-51
2022/02/13 03:20:31;;;;;;;11.23;5.27;;;;;;;5.88;100.00;101469.97;5035679;28;20029;-53
2022/02/13 03:22:56;;;;;;;11.15;5.05;;;;;;;6.25;100.00;101447.81;5052351;28;20044;-51
2022/02/13 03:25:22;;;;;;;11.77;5.27;;;;;;;5.84;100.00;101452.66;5041922;28;20037;-50
2022/02/13 03:27:48;;;;;;;12.93;6.38;;;;;;;5.87;100.00;101442.59;5046364;28;20051;-54
2022/02/13 03:30:13;;;;;;;11.90;5.30;;;;;;;6.14;100.00;101438.25;5036579;28;20046;-47
2022/02/13 03:32:38;;;;;;;18.37;5.97;;;;;;;6.28;100.00;101434.22;5048535;28;20033;-49
2022/02/13 03:35:04;;;;;;;12.43;5.13;;;;;;;6.20;100.00;101435.97;5039857;28;20037;-49
2022/02/13 03:37:30;;;;;;;11.57;4.82;;;;;;;6.02;100.00;101437.63;5040759;28;20409;-51
2022/02/13 03:39:55;;;;;;;12.70;5.75;;;;;;;5.66;100.00;101439.38;5046922;28;20033;-50
2022/02/13 03:42:21;;;;;;;13.33;6.30;;;;;;;6.29;100.00;101424.44;5050106;28;20192;-51
2022/02/13 03:44:48;;;;;;;9.37;4.17;;;;;;;6.18;100.00;101433.47;5036963;28;20025;-53
2022/02/13 03:47:13;;;;;;;13.18;5.35;;;;;;;5.95;100.00;101425.94;5043115;28;20112;-52
2022/02/13 03:49:39;;;;;;;13.13;5.93;;;;;;;5.87;100.00;101410.75;5044575;28;20574;-50
2022/02/13 03:52:05;;;;;;;15.38;5.63;;;;;;;5.89;100.00;101408.78;5018319;28;20029;-52
2022/02/13 03:54:31;;;;;;;9.55;5.05;;;;;;;6.08;100.00;101412.31;5048094;28;20105;-50
2022/02/13 03:56:56;;;;;;;16.23;5.87;;;;;;;6.05;100.00;101407.31;5038176;28;20107;-54
2022/02/13 03:59:21;;;;;;;13.37;5.50;;;;;;;5.83;100.00;101396.09;5041960;28;20037;-53
2022/02/13 04:01:47;;;;;;;12.50;6.13;;;;;;;6.01;100.00;101416.56;5032045;28;20037;-51
2022/02/13 04:04:12;;;;;;;11.40;5.43;;;;;;;5.82;100.00;101391.78;5048588;28;20032;-48
2022/02/13 04:06:38;;;;;;;12.87;5.20;;;;;;;5.94;100.00;101394.22;5035707;28;20035;-52
2022/02/13 04:09:03;;;;;;;11.13;5.63;;;;;;;5.81;100.00;101390.13;5044307;28;20037;-52
2022/02/13 04:11:28;;;;;;;11.87;6.07;;;;;;;5.56;100.00;101386.34;5042704;28;20047;-54
2022/02/13 04:13:54;;;;;;;11.03;5.93;;;;;;;5.60;100.00;101393.88;5037397;28;20045;-52
2022/02/13 04:16:19;;;;;;;13.07;6.07;;;;;;;5.73;100.00;101372.28;5047964;28;20053;-51
2022/02/13 04:18:45;;;;;;;12.27;5.70;;;;;;;5.50;100.00;101382.47;5036392;28;20067;-52
2022/02/13 04:21:11;;;;;;;9.90;5.23;;;;;;;5.55;100.00;101380.22;5051730;28;20037;-49
2022/02/13 04:23:37;;;;;;;13.40;6.20;;;;;;;5.86;100.00;101371.91;5033912;28;20319;-50
2022/02/13 04:26:02;;;;;;;19.37;5.30;;;;;;;5.64;100.00;101375.81;5051450;28;20033;-55
2022/02/13 04:28:28;;;;;;;12.18;5.75;;;;;;;5.36;100.00;101370.53;5034867;28;20052;-50
2022/02/13 04:30:54;;;;;;;16.43;5.50;;;;;;;5.55;100.00;101368.75;5045647;28;20114;-50
2022/02/13 04:33:20;;;;;;;;;;;;;;;5.50;100.00;101366.56;5041596;28;20033;-49
2022/02/13 04:35:46;;;;;;;14.40;5.90;;;;;;;5.49;100.00;101369.38;5038461;28;19963;-48
2022/02/13 04:38:11;;;;;;;12.63;5.22;;;;;;;5.78;100.00;101365.69;5047944;28;20116;-51
2022/02/13 04:40:37;;;;;;;12.97;5.80;;;;;;;5.57;100.00;101351.72;5034730;28;20075;-52
2022/02/13 04:43:02;;;;;;;12.47;5.17;;;;;;;5.35;100.00;101362.75;5051160;28;20021;-52
2022/02/13 04:45:28;;;;;;;12.37;5.43;;;;;;;5.20;100.00;101349.97;5040768;28;20033;-50
2022/02/13 04:47:53;;;;;;;14.47;4.73;;;;;;;5.34;100.00;101350.47;5045540;28;20040;-53
2022/02/13 04:50:21;;;;;;;12.33;6.00;;;;;;;5.44;100.00;101351.22;5034563;28;20036;-51
2022/02/13 04:52:51;;;;;;;13.60;6.80;;;;;;;5.16;100.00;101354.72;5046466;28;20435;-51
2022/02/13 04:55:17;;;;;;;16.60;6.22;;;;;;;5.38;100.00;101368.56;5040364;28;20045;-54
2022/02/13 04:57:44;;;;;;;12.88;6.35;;;;;;;5.42;100.00;101356.72;5042598;28;20064;-54
2022/02/13 05:00:11;;;;;;;13.02;5.30;;;;;;;5.69;100.00;101356.81;5051093;28;20041;-48
2022/02/13 05:02:37;;;;;;;16.27;5.85;;;;;;;5.53;100.00;101360.94;5038501;28;20039;-52
2022/02/13 05:05:03;;;;;;;8.63;4.80;;;;;;;5.37;100.00;101356.28;5048036;28;20029;-53
2022/02/13 05:07:29;;;;;;;17.83;5.93;;;;;;;5.47;100.00;101356.25;5045830;28;20033;-52
2022/02/13 05:09:54;;;;;;;13.48;5.70;;;;;;;5.22;100.00;101360.44;5041198;28;20095;-50
2022/02/13 05:12:20;;;;;;;16.27;5.57;;;;;;;5.26;100.00;101341.41;5051245;28;20115;-51
2022/02/13 05:14:46;;;;;;;13.67;6.93;;;;;;;5.60;100.00;101345.25;5039316;28;20033;-51
2022/02/13 05:17:11;;;;;;;;;;;;;;;5.65;100.00;101356.28;5046842;28;20437;-51
2022/02/13 05:19:37;;;;;;;16.53;5.50;;;;;;;5.69;100.00;101336.41;5046406;28;19913;-49
2022/02/13 05:22:03;;;;;;;10.37;5.20;;;;;;;5.49;100.00;101359.56;5039711;28;20037;-50
2022/02/13 05:24:28;;;;;;;19.63;5.93;;;;;;;5.48;100.00;101335.88;5051328;28;20040;-50
2022/02/13 05:26:54;;;;;;;12.25;5.30;;;;;;;5.41;100.00;101331.13;5040440;28;20033;-53
2022/02/13 05:29:19;;;;;;;11.57;4.90;;;;;;;5.46;100.00;101322.75;5045427;28;20037;-50
2022/02/13 05:31:45;;;;;;;11.40;4.73;;;;;;;5.59;100.00;101319.72;5029445;28;20060;-51
2022/02/13 05:34:15;;;;;;;13.02;5.70;;;;;;;5.43;100.00;101323.03;5038047;28;20044;-50
2022/02/13 05:36:41;;;;;;;14.77;5.90;;;;;;;5.56;100.00;101314.72;5038588;28;20132;-52
2022/02/13 05:39:06;;;;;;;9.95;4.68;;;;;;;5.46;100.00;101312.13;5046947;28;20033;-53
2022/02/13 05:41:32;;;;;;;9.20;5.33;;;;;;;5.73;100.00;101307.75;5045180;28;20047;-51
2022/02/13 05:43:57;;;;;;;10.47;5.73;;;;;;;5.64;100.00;101309.47;5054474;28;20029;-47
2022/02/13 05:46:25;;;;;;;11.30;5.77;;;;;;;5.50;100.00;101308.19;5037648;28;20063;-47
2022/02/13 05:48:53;;;;;;;13.88;5.00;;;;;;;5.81;100.00;101310.50;5048976;28;20095;-51
2022/02/13 05:51:19;;;;;;;12.15;5.60;;;;;;;5.56;100.00;101289.03;5043340;28;20037;-52
2022/02/13 05:53:44;;;;;;;10.03;5.30;;;;;;;5.41;100.00;101285.22;5041481;28;20045;-48
2022/02/13 05:56:10;;;;;;;10.77;4.43;;;;;;;5.46;100.00;101288.25;5050336;28;20040;-50
2022/02/13 05:58:39;;;;;;;11.23;5.50;;;;;;;5.34;100.00;101287.63;5037508;28;20064;-51
2022/02/13 06:01:04;;;;;;;13.63;5.60;;;;;;;5.49;100.00;101282.63;5046938;28;20115;-52
2022/02/13 06:03:30;;;;;;;13.05;5.38;;;;;;;5.48;100.00;101277.50;5044566;28;20060;-53
2022/02/13 06:05:55;;;;;;;16.60;5.77;;;;;;;5.72;100.00;101272.41;5040184;28;20067;-49
2022/02/13 06:08:21;;;;;;;12.40;5.87;;;;;;;5.66;100.00;101270.38;5050240;28;20094;-54
2022/02/13 06:10:46;;;;;;;15.33;5.07;;;;;;;5.91;100.00;101273.25;5038503;28;20033;-49
2022/02/13 06:13:11;;;;;;;15.10;5.93;;;;;;;6.02;100.00;101269.53;5046070;28;20075;-52
2022/02/13 06:15:37;;;;;;;11.87;5.77;;;;;;;6.23;100.00;101269.19;5045137;28;20071;-52
2022/02/13 06:18:03;;;;;;;12.38;5.00;;;;;;;5.97;100.00;101262.00;5038481;28;20077;-50
2022/02/13 06:20:28;;;;;;;12.77;5.40;;;;;;;6.24;100.00;101262.06;5050124;28;20037;-53
2022/02/13 06:22:54;;;;;;;14.33;5.73;;;;;;;6.09;100.00;101259.97;5039037;28;20041;-47
2022/02/13 06:25:19;;;;;;;10.43;5.47;;;;;;;5.80;100.00;101255.72;5044577;28;20045;-50
2022/02/13 06:27:45;;;;;;;18.27;5.43;;;;;;;5.85;100.00;101242.81;5028454;28;20041;-52
2022/02/13 06:30:10;;;;;;;16.00;5.80;;;;;;;5.73;100.00;101247.53;5037714;28;20033;-51
2022/02/13 06:32:36;;;;;;;11.95;5.38;;;;;;;5.85;100.00;101258.75;5067046;28;20142;-48
2022/02/13 06:35:01;;;;;;;11.70;5.80;;;;;;;6.08;100.00;101258.28;5046824;28;20045;-47
2022/02/13 06:37:27;;;;;;;11.43;5.10;;;;;;;6.02;100.00;101253.59;5041871;28;20033;-47
2022/02/13 06:39:52;;;;;;;10.97;5.43;;;;;;;6.19;100.00;101259.84;5040016;28;20045;-50
2022/02/13 06:42:18;;;;;;;15.38;5.97;;;;;;;5.84;100.00;101254.44;5049088;28;20039;-50
2022/02/13 06:44:44;;;;;;;10.82;4.80;;;;;;;5.78;100.00;101255.06;5053421;28;20059;-53
2022/02/13 06:47:09;;;;;;;9.90;4.57;;;;;;;5.83;100.00;101260.72;5045597;28;20114;-53
2022/02/13 06:49:35;;;;;;;13.93;6.37;;;;;;;6.10;100.00;101253.66;5043845;28;20040;-52
2022/02/13 06:52:00;;;;;;;10.83;5.63;;;;;;;6.30;100.00;101264.91;5038871;28;20040;-51
2022/02/13 06:54:25;;;;;;;13.57;5.40;;;;;;;6.29;100.00;101265.06;5049400;28;20037;-49
2022/02/13 06:56:51;;;;;;;9.83;5.63;;;;;;;6.15;100.00;101259.31;5037916;28;20456;-49
2022/02/13 06:59:17;;;;;;;16.00;5.57;;;;;;;6.00;100.00;101264.34;5044636;28;20060;-51
2022/02/13 07:01:42;;;;;;;11.63;5.65;;;;;;;5.83;100.00;101249.25;5044998;28;20408;-53
2022/02/13 07:04:08;;;;;;;8.23;4.50;;;;;;;5.86;100.00;101251.59;5037622;28;20041;-50
2022/02/13 07:06:33;;;;;;;10.17;5.77;;;;;;;6.11;100.00;101246.50;5049452;28;20082;-50
2022/02/13 07:08:59;;;;;;;12.60;5.47;;;;;;;6.04;100.00;101243.66;5038747;28;20037;-54
2022/02/13 07:11:24;;;;;;;9.97;5.20;;;;;;;6.15;100.00;101243.41;5025771;28;20068;-55
2022/02/13 07:13:49;;;;;;;13.53;5.90;;;;;;;6.09;100.00;101238.72;5045796;28;20037;-53
2022/02/13 07:16:15;;;;;;;12.87;5.13;;;;;;;6.31;100.00;101239.19;5036396;28;20111;-52
2022/02/13 07:18:40;;;;;;;9.50;4.83;;;;;;;6.24;100.00;101246.94;5048652;28;20067;-47
2022/02/13 07:21:06;;;;;;;9.87;3.97;;;;;;;6.20;100.00;101242.94;5039205;28;20277;-56
2022/02/13 07:23:31;;;;;;;13.53;6.47;;;;;;;6.42;100.00;101233.59;5042088;28;20030;-52
2022/02/13 07:25:57;;;;;;;10.93;4.30;;;;;;;6.36;100.00;101234.22;5046481;28;20063;-50
2022/02/13 07:31:06;;;;;;;11.65;5.45;;;;;;;6.54;100.00;101225.34;5045579;28;20071;-52
2022/02/13 07:33:34;;;;;;;11.87;5.93;;;;;;;6.62;100.00;101233.34;5042730;28;20072;-49
2022/02/13 07:36:00;;;;;;;9.75;5.00;;;;;;;6.65;100.00;101226.88;5049816;28;20040;-51
2022/02/13 07:38:25;;;;;;;16.13;5.33;;;;;;;6.87;100.00;101231.63;5045026;28;20028;-52
2022/02/13 07:40:50;;;;;;;11.37;5.57;;;;;;;6.64;100.00;101228.69;5047003;28;20108;-50
2022/02/13 07:43:16;;;;;;;9.63;5.30;;;;;;;6.60;100.00;101219.38;5048178;28;20028;-51
2022/02/13 07:45:41;;;;;;;10.43;6.10;;;;;;;6.50;100.00;101218.69;5041181;28;20045;-50
2022/02/13 07:48:09;;;;;;;9.23;4.68;;;;;;;6.44;100.00;101217.50;5046980;28;20033;-52
2022/02/13 07:50:35;;;;;;;11.05;4.82;;;;;;;6.63;100.00;101219.06;5048157;28;20489;-49
2022/02/13 07:53:01;;;;;;;13.20;5.63;;;;;;;6.55;100.00;101219.84;5051851;28;20041;-53
2022/02/13 07:55:27;;;;;;;9.07;4.60;;;;;;;6.60;100.00;101219.38;5042775;28;20042;-47
2022/02/13 07:57:53;;;;;;;15.03;4.60;;;;;;;6.73;100.00;101224.25;5044833;28;20079;-48
2022/02/13 08:00:18;;;;;;;8.53;3.90;;;;;;;6.61;100.00;101231.69;5035177;28;20283;-50
2022/02/13 08:02:44;;;;;;;9.60;4.60;;;;;;;6.91;100.00;101216.16;5048348;28;20099;-53
2022/02/13 08:05:09;;;;;;;13.53;5.00;;;;;;;6.93;100.00;101216.00;5038762;28;20032;-47
2022/02/13 08:07:34;;;;;;;10.70;5.07;;;;;;;6.86;100.00;101215.81;5040856;28;20533;-50
2022/02/13 08:10:00;;;;;;;7.37;3.63;;;;;;;6.88;100.00;101205.84;5045580;28;20041;-54
2022/02/13 08:12:25;;;;;;;11.90;4.63;;;;;;;7.34;100.00;101212.59;5034292;28;20478;-51
2022/02/13 08:14:51;;;;;;;16.33;5.20;;;;;;;7.29;100.00;101203.28;5046781;28;20540;-52
2022/02/13 08:17:16;;;;;;;11.93;5.07;;;;;;;7.27;100.00;101213.25;5039200;28;20064;-53
2022/02/13 08:19:42;;;;;;;8.27;4.53;;;;;;;7.18;100.00;101203.63;5040398;28;20049;-47
2022/02/13 08:22:08;;;;;;;7.83;4.33;;;;;;;6.98;100.00;101221.66;5046235;28;20036;-52
2022/02/13 08:24:34;;;;;;;10.70;4.63;;;;;;;7.26;100.00;101208.09;5034285;28;20042;-49
2022/02/13 08:27:00;;;;;;;;;;;;;;;7.62;100.00;101191.00;5046193;28;20033;-52
2022/02/13 08:29:25;;;;;;;9.67;4.10;;;;;;;7.56;100.00;101193.31;5040422;28;19919;-53
2022/02/13 08:31:51;;;;;;;18.70;7.60;;;;;;;7.32;100.00;101194.16;5041246;28;20043;-52
2022/02/13 08:34:16;;;;;;;11.35;5.68;;;;;;;7.77;98.93;101185.84;5051395;28;20112;-54
2022/02/13 08:36:42;;;;;;;7.70;4.13;;;;;;;7.57;100.00;101210.13;5037415;28;20048;-52
2022/02/13 08:39:08;;;;;;;11.60;4.93;;;;;;;7.49;100.00;101184.34;5048659;28;20041;-54
2022/02/13 08:41:35;;;;;;;11.77;4.68;;;;;;;7.70;99.18;101193.66;5045118;28;20056;-49
2022/02/13 08:44:01;;;;;;;12.35;4.95;;;;;;;7.71;99.08;101180.16;5049299;28;20033;-55
2022/02/13 08:46:26;;;;;;;7.68;4.13;;;;;;;8.18;93.30;101181.25;5052584;28;20052;-54
2022/02/13 08:48:52;;;;;;;11.07;4.37;;;;;;;8.08;93.79;101182.44;5043874;28;20408;-49
2022/02/13 08:51:17;;;;;;;9.73;4.43;;;;;;;8.08;91.48;101177.94;5044347;28;20025;-52
2022/02/13 08:53:43;;;;;;;10.53;5.20;;;;;;;8.33;91.61;101194.69;5054758;28;20045;-52
2022/02/13 08:56:08;;;;;;;10.20;4.47;;;;;;;8.38;90.29;101186.19;5040215;28;20041;-52
2022/02/13 08:58:33;;;;;;;8.97;4.90;;;;;;;8.32;90.67;101182.34;5051185;28;20041;-52
2022/02/13 09:00:59;;;;;;;7.23;4.40;;;;;;;8.42;89.13;101176.81;5036781;28;20033;-50
2022/02/13 09:03:27;;;;;;;12.60;4.70;;;;;;;8.43;89.84;101170.50;5051631;28;20706;-53
2022/02/13 09:05:53;;;;;;;8.70;4.82;;;;;;;8.61;87.88;101158.78;5047386;28;20070;-52
2022/02/13 09:08:19;;;;;;;8.80;4.30;;;;;;;8.72;84.38;101170.91;5034144;28;20485;-53
2022/02/13 09:10:44;;;;;;;11.37;5.17;;;;;;;9.21;80.38;101159.06;5043348;28;20034;-53
2022/02/13 09:13:11;;;;;;;7.13;3.60;;;;;;;9.55;74.56;101170.31;5043508;28;20029;-53
2022/02/13 09:15:37;;;;;;;10.00;4.72;;;;;;;10.06;71.39;101152.81;5051005;28;20033;-50
2022/02/13 09:18:02;;;;;;;12.25;4.38;;;;;;;10.68;67.58;101140.00;5045918;28;20059;-55
2022/02/13 09:20:28;;;;;;;11.77;5.23;;;;;;;10.42;64.73;101139.53;5043352;28;20123;-51
2022/02/13 09:22:54;;;;;;;15.63;5.67;;;;;;;10.32;65.96;101131.78;5047314;28;20025;-54
2022/02/13 09:25:19;;;;;;;11.20;5.03;;;;;;;10.73;64.89;101133.09;5026160;28;20128;-53
2022/02/13 09:27:44;;;;;;;9.00;5.00;;;;;;;10.80;62.28;101132.31;5052004;28;20113;-53
2022/02/13 09:30:10;;;;;;;8.70;4.50;;;;;;;10.95;61.59;101132.25;5044305;28;20036;-49
2022/02/13 09:32:38;;;;;;;8.75;4.95;;;;;;;10.81;62.39;101126.78;5042985;28;20060;-53
2022/02/13 09:35:05;;;;;;;11.23;5.57;;;;;;;11.13;61.30;101129.97;5050598;28;20032;-51
2022/02/13 09:37:30;;;;;;;;;;;;;;;11.80;59.76;101128.84;5048234;28;20052;-54
2022/02/13 09:39:56;;;;;;;8.87;5.00;;;;;;;11.51;58.23;101123.47;5044928;28;19928;-53
2022/02/13 09:42:21;;;;;;;10.87;5.53;;;;;;;12.16;57.18;101136.69;5048001;28;20041;-52
2022/02/13 09:44:47;;;;;;;9.00;4.50;;;;;;;12.30;56.02;101118.00;5050149;28;20042;-54
2022/02/13 09:47:14;;;;;;;7.10;4.60;;;;;;;12.77;53.61;101113.63;5044761;28;20033;-52
2022/02/13 09:49:39;;;;;;;7.35;4.72;;;;;;;12.73;52.58;101098.13;5045863;28;20361;-53
2022/02/13 09:52:07;;;;;;;8.33;4.73;;;;;;;12.63;52.75;101109.22;5052938;28;20495;-54
2022/02/13 09:54:33;;;;;;;13.15;6.00;;;;;;;13.03;51.56;101100.41;5042309;28;20090;-52
2022/02/13 09:57:59;;;;;;;10.27;4.50;;;;;;;12.87;52.26;101090.91;5042940;28;20120;-54
2022/02/13 10:00:00;;;;;;;9.98;4.60;;;;;;;13.05;50.82;101099.19;5051595;28;20043;-48
2022/02/13 10:02:37;;;;;;;7.07;4.85;;;;;;;13.26;50.16;101083.06;5051662;28;20033;-51
2022/02/13 10:05:08;;;;;;;10.80;4.68;;;;;;;12.84;51.43;101091.31;5052361;28;20039;-50
2022/02/13 10:07:35;;;;;;;9.63;4.30;;;;;;;12.81;50.49;101114.03;5027760;28;20034;-51
2022/02/13 10:10:04;;;;;;;8.73;4.55;;;;;;;12.71;51.97;101076.88;5044160;28;20076;-51
2022/02/13 10:12:44;;;;;;;7.88;4.30;;;;;;;12.65;51.03;101095.63;5047004;28;20497;-49
2022/02/13 10:15:25;;;;;;;12.25;4.78;;;;;;;13.08;50.73;101071.13;5048963;28;20029;-51
2022/02/13 10:18:08;;;;;;;8.93;4.95;;;;;;;13.55;49.62;101057.66;5042993;28;20176;-51
2022/02/13 10:20:41;;;;;;;10.93;4.70;;;;;;;13.79;48.83;101059.88;5041857;28;20064;-55
2022/02/13 10:23:12;;;;;;;9.17;4.50;;;;;;;13.64;47.63;101052.06;5041081;28;20032;-56
2022/02/13 10:25:38;;;;;;;8.50;4.30;;;;;;;13.86;47.84;101066.91;5051299;28;20343;-54
2022/02/13 10:28:12;;;;;;;11.27;4.90;;;;;;;14.39;47.09;101062.31;5044142;28;20282;-55
2022/02/13 10:30:46;;;;;;;7.63;4.50;;;;;;;14.19;46.52;101055.16;5048620;28;20525;-54
2022/02/13 10:33:14;;;;;;;6.70;4.23;;;;;;;14.13;46.72;101063.25;5043058;28;20285;-50
2022/02/13 10:35:39;;;;;;;8.40;5.60;;;;;;;15.53;44.41;101060.63;5044066;28;20767;-54
2022/02/13 10:38:04;;;;;;;7.77;4.80;;;;;;;14.66;45.57;101070.22;5043170;28;20658;-55
2022/02/13 10:40:31;;;;;;;8.13;4.90;;;;;;;15.11;44.84;101079.25;5023078;28;20032;-55
2022/02/13 10:43:05;;;;;;;7.77;4.50;;;;;;;15.17;44.75;101086.44;5049277;28;20024;-55
2022/02/13 10:45:32;;;;;;;9.83;4.47;;;;;;;15.20;44.33;101077.94;5051998;28;20281;-56
2022/02/13 10:48:00;;;;;;;8.40;4.40;;;;;;;15.75;43.71;101071.00;5042815;28;20435;-53
2022/02/13 10:50:28;;;;;;;10.27;5.40;;;;;;;14.94;44.76;101066.31;5047855;28;20277;-57
2022/02/13 10:52:59;;;;;;;10.63;5.30;;;;;;;14.98;44.38;101070.22;5049600;28;20275;-54
2022/02/13 10:55:25;;;;;;;8.33;5.10;;;;;;;15.49;44.43;101045.97;5044848;28;20289;-53
2022/02/13 10:57:51;;;;;;;8.68;4.75;;;;;;;15.36;44.89;101055.00;5041009;28;20274;-54
2022/02/13 11:00:17;;;;;;;6.53;4.38;;;;;;;14.99;45.43;101046.84;5046969;28;20036;-53
2022/02/13 11:02:48;;;;;;;12.25;4.97;;;;;;;16.17;43.15;101046.88;5050577;28;20052;-52
2022/02/13 11:05:15;;;;;;;8.50;4.83;;;;;;;16.51;42.54;101040.16;5042941;28;20082;-53
2022/02/13 11:07:43;;;;;;;10.13;4.97;;;;;;;16.30;42.70;101053.13;5042570;28;20312;-53
2022/02/13 11:10:14;;;;;;;10.50;4.57;;;;;;;16.04;42.87;101033.53;5047098;28;20102;-54
2022/02/13 11:12:43;;;;;;;7.03;4.30;;;;;;;15.88;43.03;101024.16;5036137;28;20278;-55
2022/02/13 11:15:17;;;;;;;11.23;4.87;;;;;;;16.32;42.93;101026.72;5046784;28;20310;-54
2022/02/13 11:17:45;;;;;;;6.57;4.03;;;;;;;15.56;43.73;101025.16;5043308;28;20389;-55
2022/02/13 11:20:13;;;;;;;10.27;4.17;;;;;;;15.91;43.39;101008.41;5038116;28;20281;-52